Time;durP1;ratioP1;P1;durP2;ratioP2;P2;SDS_P1;SDS_P2;PMS_P1;PMS_P2;Temp;Humidity;BMP_temperature;BMP_pressure;BME280_temperature;BME280_humidity;BME280_pressure;Samples;Min_cycle;Max_cycle;Signal;HPM_P1;HPM_P2
2021/09/15 00:00:39;;;;;;;;;;;14.60;81.10;;;;;;5056201;28;19924;-75
2021/09/15 00:03:04;;;;;;;;;;;14.70;82.20;;;;;;5055705;28;19909;-75
2021/09/15 00:05:30;;;;;;;;;;;14.70;81.50;;;;;;5037853;28;20404;-75
2021/09/15 00:07:55;;;;;;;;;;;14.70;82.60;;;;;;5055719;28;19908;-75
2021/09/15 00:10:21;;;;;;;;;;;14.70;81.30;;;;;;5037828;28;19917;-75
2021/09/15 00:12:47;;;;;;;;;;;14.70;78.80;;;;;;5055517;28;19970;-75
2021/09/15 00:15:12;;;;;;;;;;;14.70;80.20;;;;;;5055715;28;19916;-75
2021/09/15 00:17:38;;;;;;;;;;;14.70;81.30;;;;;;5037476;28;19924;-75
2021/09/15 00:20:04;;;;;;;;;;;14.70;80.60;;;;;;5037644;28;19917;-75
2021/09/15 00:22:30;;;;;;;;;;;14.70;78.90;;;;;;5055326;28;19909;-75
2021/09/15 00:24:56;;;;;;;;;;;14.60;80.20;;;;;;5055576;28;19917;-75
2021/09/15 00:27:22;;;;;;;;;;;14.60;78.10;;;;;;5056989;28;19924;-75
2021/09/15 00:29:47;;;;;;;;;;;14.60;79.00;;;;;;5037306;28;19921;-75
2021/09/15 00:32:13;;;;;;;;;;;14.60;78.70;;;;;;5055132;28;20383;-75
2021/09/15 00:34:38;;;;;;;;;;;14.60;78.30;;;;;;5055424;28;19923;-75
2021/09/15 00:37:04;;;;;;;;;;;14.50;78.00;;;;;;5037078;28;20007;-75
2021/09/15 00:39:29;;;;;;;;;;;14.50;77.70;;;;;;5055209;28;19917;-75
2021/09/15 00:41:55;;;;;;;;;;;14.50;77.80;;;;;;5054987;28;20008;-75
2021/09/15 00:44:20;;;;;;;;;;;14.40;77.30;;;;;;5037057;28;19982;-75
2021/09/15 00:46:46;;;;;;;;;;;14.40;76.60;;;;;;5054922;28;19909;-75
2021/09/15 00:49:11;;;;;;;;;;;14.30;76.60;;;;;;5054831;28;20039;-75
2021/09/15 00:51:38;;;;;;;;;;;14.30;76.00;;;;;;5054816;28;20031;-75
2021/09/15 00:54:05;;;;;;;;;;;14.30;75.20;;;;;;5054869;28;19959;-75
2021/09/15 00:56:31;;;;;;;;;;;14.30;74.90;;;;;;5036636;28;19924;-75
2021/09/15 00:58:57;;;;;;;;;;;14.30;74.60;;;;;;5036841;28;19923;-75
2021/09/15 01:01:22;;;;;;;;;;;14.20;74.10;;;;;;5054502;28;19909;-75
2021/09/15 01:03:48;;;;;;;;;;;14.20;73.50;;;;;;5054603;28;19908;-76
2021/09/15 01:06:13;;;;;;;;;;;14.20;73.10;;;;;;5053959;28;19919;-75
2021/09/15 01:08:40;;;;;;;;;;;14.20;73.00;;;;;;5054474;28;19971;-75
2021/09/15 01:11:06;;;;;;;;;;;14.10;72.80;;;;;;5054393;28;20368;-75
2021/09/15 01:13:32;;;;;;;;;;;14.10;72.80;;;;;;5054511;28;19913;-75
2021/09/15 01:15:58;;;;;;;;;;;14.10;72.90;;;;;;5054192;28;19921;-75
2021/09/15 01:18:24;;;;;;;;;;;14.10;73.10;;;;;;5054226;28;19921;-75
2021/09/15 01:20:50;;;;;;;;;;;14.10;73.10;;;;;;5054616;28;19919;-75
2021/09/15 01:23:15;;;;;;;;;;;14.00;73.50;;;;;;5036320;28;19940;-75
2021/09/15 01:25:41;;;;;;;;;;;14.00;73.40;;;;;;5037829;28;19913;-75
2021/09/15 01:28:07;;;;;;;;;;;14.00;73.70;;;;;;5054641;28;19921;-75
2021/09/15 01:30:33;;;;;;;;;;;14.00;73.90;;;;;;5036600;28;19987;-75
2021/09/15 01:32:58;;;;;;;;;;;14.00;74.00;;;;;;5054268;28;19954;-75
2021/09/15 01:35:24;;;;;;;;;;;13.90;74.40;;;;;;5054635;28;19917;-75
2021/09/15 01:37:49;;;;;;;;;;;13.90;74.10;;;;;;5054033;28;19967;-75
2021/09/15 01:40:15;;;;;;;;;;;13.90;74.30;;;;;;5054260;28;20362;-75
2021/09/15 01:42:40;;;;;;;;;;;13.90;74.60;;;;;;5053911;28;20266;-75
2021/09/15 01:45:07;;;;;;;;;;;13.80;74.60;;;;;;5036125;28;19920;-75
2021/09/15 01:47:32;;;;;;;;;;;13.80;74.60;;;;;;5036242;28;20340;-75
2021/09/15 01:49:58;;;;;;;;;;;13.80;75.00;;;;;;5054081;28;20000;-75
2021/09/15 01:52:24;;;;;;;;;;;13.70;74.70;;;;;;5053725;28;20015;-75
2021/09/15 01:54:49;;;;;;;;;;;13.70;73.90;;;;;;5052462;28;20047;-75
2021/09/15 01:57:15;;;;;;;;;;;13.70;74.30;;;;;;5053567;28;19944;-75
2021/09/15 01:59:40;;;;;;;;;;;13.60;74.10;;;;;;5053873;28;19974;-74
2021/09/15 02:02:10;;;;;;;;;;;13.60;73.50;;;;;;5053665;28;19920;-75
2021/09/15 02:04:36;;;;;;;;;;;13.60;73.60;;;;;;5053861;28;19913;-75
2021/09/15 02:07:02;;;;;;;;;;;13.60;72.90;;;;;;5035769;28;19913;-75
2021/09/15 02:09:27;;;;;;;;;;;13.60;72.80;;;;;;5053645;28;19939;-75
2021/09/15 02:11:53;;;;;;;;;;;13.60;72.40;;;;;;5053508;28;19913;-75
2021/09/15 02:14:18;;;;;;;;;;;13.60;71.90;;;;;;5053615;28;19912;-75
2021/09/15 02:16:44;;;;;;;;;;;13.60;71.70;;;;;;5035517;28;19975;-75
2021/09/15 02:19:10;;;;;;;;;;;13.50;71.50;;;;;;5038278;28;19919;-75
2021/09/15 02:21:35;;;;;;;;;;;13.60;71.40;;;;;;5057649;28;19964;-75
2021/09/15 02:24:01;;;;;;;;;;;13.60;71.10;;;;;;5057677;28;19913;-75
2021/09/15 02:26:28;;;;;;;;;;;13.60;71.10;;;;;;5058960;28;19917;-75
2021/09/15 02:28:54;;;;;;;;;;;13.50;70.90;;;;;;5039538;28;19925;-75
2021/09/15 02:31:19;;;;;;;;;;;13.50;71.00;;;;;;5057352;28;19909;-75
2021/09/15 02:33:45;;;;;;;;;;;13.50;71.00;;;;;;5057501;28;19909;-75
2021/09/15 02:36:10;;;;;;;;;;;13.50;71.00;;;;;;5057276;28;19916;-76
2021/09/15 02:38:36;;;;;;;;;;;13.40;71.00;;;;;;5057241;28;20015;-75
2021/09/15 02:41:01;;;;;;;;;;;13.40;71.00;;;;;;5057230;28;20338;-75
2021/09/15 02:43:27;;;;;;;;;;;13.40;70.90;;;;;;5057525;28;20376;-75
2021/09/15 02:45:53;;;;;;;;;;;13.40;70.90;;;;;;5039563;28;20015;-76
2021/09/15 02:48:18;;;;;;;;;;;13.30;70.90;;;;;;5039384;28;19987;-76
2021/09/15 02:50:44;;;;;;;;;;;13.30;70.90;;;;;;5057677;28;20338;-75
2021/09/15 02:53:09;;;;;;;;;;;13.30;70.90;;;;;;5039350;28;19909;-76
2021/09/15 02:55:35;;;;;;;;;;;13.20;71.00;;;;;;5057415;28;19917;-74
2021/09/15 02:58:00;;;;;;;;;;;13.20;71.00;;;;;;5055686;28;19917;-74
2021/09/15 03:00:26;;;;;;;;;;;13.10;70.90;;;;;;5057330;28;19916;-74
2021/09/15 03:02:51;;;;;;;;;;;13.00;71.10;;;;;;5056959;28;20000;-76
2021/09/15 03:05:17;;;;;;;;;;;12.90;71.60;;;;;;5057212;28;20437;-75
2021/09/15 03:07:43;;;;;;;;;;;12.90;71.40;;;;;;5038801;28;20366;-74
2021/09/15 03:10:08;;;;;;;;;;;12.90;71.70;;;;;;5057026;28;19960;-74
2021/09/15 03:12:34;;;;;;;;;;;12.90;71.40;;;;;;5056660;28;19948;-75
2021/09/15 03:15:00;;;;;;;;;;;12.80;71.50;;;;;;5056958;28;19921;-75
2021/09/15 03:17:25;;;;;;;;;;;12.80;71.60;;;;;;5056338;28;19917;-76
2021/09/15 03:19:51;;;;;;;;;;;12.80;71.70;;;;;;5056649;28;19921;-75
2021/09/15 03:22:16;;;;;;;;;;;12.70;71.60;;;;;;5056455;28;20011;-75
2021/09/15 03:24:42;;;;;;;;;;;12.70;71.60;;;;;;5038543;28;19971;-76
2021/09/15 03:27:08;;;;;;;;;;;12.70;71.70;;;;;;5057769;28;19978;-77
2021/09/15 03:29:34;;;;;;;;;;;12.60;71.40;;;;;;5056129;28;19924;-75
2021/09/15 03:32:00;;;;;;;;;;;12.60;71.50;;;;;;5038482;28;19909;-77
2021/09/15 03:34:26;;;;;;;;;;;12.60;71.40;;;;;;5038632;28;19921;-76
2021/09/15 03:36:51;;;;;;;;;;;12.50;71.30;;;;;;5056189;28;20276;-76
2021/09/15 03:39:17;;;;;;;;;;;12.50;71.20;;;;;;5056356;28;19916;-75
2021/09/15 03:41:43;;;;;;;;;;;12.50;71.40;;;;;;5038252;28;19951;-76
2021/09/15 03:44:08;;;;;;;;;;;12.50;71.30;;;;;;5056066;28;20003;-76
2021/09/15 03:46:34;;;;;;;;;;;12.50;71.10;;;;;;5056030;28;19909;-75
2021/09/15 03:48:59;;;;;;;;;;;12.50;71.00;;;;;;5056383;28;19917;-76
2021/09/15 03:51:26;;;;;;;;;;;12.50;70.90;;;;;;5055792;28;19909;-75
2021/09/15 03:53:51;;;;;;;;;;;12.50;70.80;;;;;;5056063;28;19952;-77
2021/09/15 03:56:17;;;;;;;;;;;12.60;70.80;;;;;;5037958;28;19909;-76
2021/09/15 03:58:43;;;;;;;;;;;12.60;70.80;;;;;;5055565;28;20282;-75
2021/09/15 04:01:10;;;;;;;;;;;12.60;70.80;;;;;;5055738;28;19909;-75
2021/09/15 04:03:35;;;;;;;;;;;12.70;70.80;;;;;;5054112;28;19909;-75
2021/09/15 04:06:01;;;;;;;;;;;12.70;70.60;;;;;;5055712;28;19963;-75
2021/09/15 04:08:27;;;;;;;;;;;12.80;70.70;;;;;;5038016;28;20365;-77
2021/09/15 04:10:53;;;;;;;;;;;12.90;70.70;;;;;;5058172;28;19913;-77
2021/09/15 04:13:18;;;;;;;;;;;12.90;70.60;;;;;;5053421;28;19912;-76
2021/09/15 04:15:44;;;;;;;;;;;13.00;70.70;;;;;;5035607;28;19912;-76
2021/09/15 04:18:09;;;;;;;;;;;13.10;70.60;;;;;;5035434;28;19921;-76
2021/09/15 04:20:35;;;;;;;;;;;13.20;70.40;;;;;;5053681;28;19945;-77
2021/09/15 04:23:01;;;;;;;;;;;13.30;70.60;;;;;;5035671;28;20344;-77
2021/09/15 04:31:18;;;;;;;;;;;13.70;70.00;;;;;;5055760;28;19940;-76
2021/09/15 04:33:44;;;;;;;;;;;13.80;69.60;;;;;;5055137;28;20366;-76
2021/09/15 04:36:09;;;;;;;;;;;14.00;69.50;;;;;;5054687;28;19909;-76
2021/09/15 04:38:36;;;;;;;;;;;14.20;69.50;;;;;;5055011;28;19999;-76
2021/09/15 04:41:02;;;;;;;;;;;14.80;69.90;;;;;;5053927;28;19913;-77
2021/09/15 04:43:27;;;;;;;;;;;15.50;69.10;;;;;;5054879;28;19913;-76
2021/09/15 04:45:53;;;;;;;;;;;16.20;68.50;;;;;;5055013;28;20326;-76
2021/09/15 04:48:18;;;;;;;;;;;17.10;67.30;;;;;;5036905;28;20003;-77
2021/09/15 04:50:44;;;;;;;;;;;17.80;65.80;;;;;;5036789;28;20247;-76
2021/09/15 04:53:09;;;;;;;;;;;18.50;63.50;;;;;;5054319;28;19913;-77
2021/09/15 04:55:35;;;;;;;;;;;19.00;63.40;;;;;;5036487;28;20274;-77
2021/09/15 04:58:01;;;;;;;;;;;19.70;61.50;;;;;;5052771;28;20297;-76
2021/09/15 05:00:27;;;;;;;;;;;20.20;60.50;;;;;;5036330;28;19913;-77
2021/09/15 05:02:53;;;;;;;;;;;20.70;60.40;;;;;;5036108;28;20332;-76
2021/09/15 05:05:18;;;;;;;;;;;21.00;60.80;;;;;;5053650;28;19913;-77
2021/09/15 05:07:44;;;;;;;;;;;21.20;58.30;;;;;;5035287;28;19913;-77
2021/09/15 05:10:09;;;;;;;;;;;21.60;56.90;;;;;;5053151;28;20046;-77
2021/09/15 05:12:35;;;;;;;;;;;22.10;56.70;;;;;;5052370;28;19912;-76
2021/09/15 05:15:01;;;;;;;;;;;22.40;56.30;;;;;;5033066;28;19913;-76
2021/09/15 05:17:26;;;;;;;;;;;22.70;53.80;;;;;;5034853;28;19921;-79
2021/09/15 05:19:53;;;;;;;;;;;22.90;55.50;;;;;;5051067;28;20243;-77
2021/09/15 05:22:18;;;;;;;;;;;23.20;51.40;;;;;;5032225;28;20277;-77
2021/09/15 05:24:51;;;;;;;;;;;23.60;53.60;;;;;;5034330;28;19913;-81
2021/09/15 05:27:17;;;;;;;;;;;23.80;53.10;;;;;;5036485;28;19916;-79
2021/09/15 05:29:47;;;;;;;;;;;24.00;51.00;;;;;;5035130;28;20320;-77
2021/09/15 05:32:13;;;;;;;;;;;24.00;53.70;;;;;;5055451;28;19974;-79
2021/09/15 05:34:39;;;;;;;;;;;24.10;49.50;;;;;;5058625;28;19916;-81
2021/09/15 05:37:05;;;;;;;;;;;24.10;53.60;;;;;;5041757;28;19964;-80
2021/09/15 05:39:30;;;;;;;;;;;24.20;51.50;;;;;;5037505;28;19924;-80
2021/09/15 05:41:56;;;;;;;;;;;24.30;48.60;;;;;;5053075;28;19909;-78
2021/09/15 05:44:21;;;;;;;;;;;24.50;49.90;;;;;;5050390;28;20022;-78
2021/09/15 05:49:11;;;;;;;;;;;24.90;49.20;;;;;;5128630;27;19918;-77
2021/09/15 05:51:37;;;;;;;;;;;25.10;50.30;;;;;;5130161;27;20006;-78
2021/09/15 05:54:04;;;;;;;;;;;25.20;48.70;;;;;;5128074;28;19994;-79
2021/09/15 05:56:30;;;;;;;;;;;25.30;45.80;;;;;;5127055;28;19915;-79
2021/09/15 05:58:56;;;;;;;;;;;25.40;46.60;;;;;;5127645;28;19916;-78
2021/09/15 06:01:22;;;;;;;;;;;25.40;47.10;;;;;;5130306;28;19912;-76
2021/09/15 06:03:48;;;;;;;;;;;25.60;47.50;;;;;;5131546;27;19916;-80
2021/09/15 06:06:13;;;;;;;;;;;25.80;49.20;;;;;;5130050;28;19930;-79
2021/09/15 06:08:39;;;;;;;;;;;25.90;46.90;;;;;;5130934;28;19935;-76
2021/09/15 06:11:05;;;;;;;;;;;26.10;46.00;;;;;;5130439;28;19908;-77
2021/09/15 06:13:30;;;;;;;;;;;26.20;45.00;;;;;;5130629;28;19968;-78
2021/09/15 06:15:56;;;;;;;;;;;26.50;44.50;;;;;;5131066;28;19911;-79
2021/09/15 06:18:24;;;;;;;;;;;26.80;44.20;;;;;;5133117;28;20023;-79
2021/09/15 06:20:50;;;;;;;;;;;27.10;44.50;;;;;;5132856;28;20372;-80
2021/09/15 06:23:15;;;;;;;;;;;27.50;47.40;;;;;;5135081;27;20007;-81
2021/09/15 06:25:42;;;;;;;;;;;27.60;41.10;;;;;;5132539;28;19907;-79
2021/09/15 06:28:08;;;;;;;;;;;28.00;46.70;;;;;;5135145;27;19949;-79
2021/09/15 06:30:34;;;;;;;;;;;28.40;43.20;;;;;;5128228;28;20287;-78
2021/09/15 06:33:01;;;;;;;;;;;28.80;40.30;;;;;;5128492;27;20356;-80
2021/09/15 06:35:27;;;;;;;;;;;29.10;41.10;;;;;;5127721;28;20293;-78
2021/09/15 06:37:52;;;;;;;;;;;29.60;44.50;;;;;;5128285;27;19960;-77
2021/09/15 06:40:18;;;;;;;;;;;30.00;39.60;;;;;;5128479;28;20010;-79
2021/09/15 06:42:43;;;;;;;;;;;30.50;38.40;;;;;;5130005;27;20292;-78
2021/09/15 06:45:10;;;;;;;;;;;30.90;40.00;;;;;;5129462;28;20343;-77
2021/09/15 06:47:40;;;;;;;;;;;31.10;38.50;;;;;;5128021;28;19930;-78
2021/09/15 06:50:05;;;;;;;;;;;31.00;39.70;;;;;;5127516;28;19907;-77
2021/09/15 06:52:31;;;;;;;;;;;31.10;37.80;;;;;;5131123;27;19916;-79
2021/09/15 06:54:56;;;;;;;;;;;31.00;38.60;;;;;;5131838;28;19915;-77
2021/09/15 06:57:22;;;;;;;;;;;30.70;36.50;;;;;;5132060;28;19915;-80
2021/09/15 06:59:48;;;;;;;;;;;30.50;36.90;;;;;;5120534;27;19930;-76
2021/09/15 07:02:13;;;;;;;;;;;30.50;39.50;;;;;;5115205;28;20198;-77
2021/09/15 07:04:39;;;;;;;;;;;30.30;39.20;;;;;;5115391;28;19919;-78
2021/09/15 07:07:05;;;;;;;;;;;30.40;39.40;;;;;;5112905;28;20077;-76
2021/09/15 07:09:31;;;;;;;;;;;30.60;38.20;;;;;;5109615;28;20601;-77
2021/09/15 07:11:56;;;;;;;;;;;30.80;37.90;;;;;;5111120;28;20384;-82
2021/09/15 07:14:22;;;;;;;;;;;31.00;37.60;;;;;;5113640;28;19912;-83
2021/09/15 07:16:47;;;;;;;;;;;31.10;36.80;;;;;;5113482;27;19981;-78
2021/09/15 07:19:13;;;;;;;;;;;31.00;36.90;;;;;;5111288;28;20015;-78
2021/09/15 07:21:40;;;;;;;;;;;30.40;37.50;;;;;;5110942;27;19911;-76
2021/09/15 07:24:06;;;;;;;;;;;29.60;38.30;;;;;;5109804;28;19912;-78
2021/09/15 07:26:32;;;;;;;;;;;29.40;38.60;;;;;;5113955;28;19986;-79
2021/09/15 07:28:58;;;;;;;;;;;29.10;37.90;;;;;;5121356;28;20258;-79
2021/09/15 07:31:24;;;;;;;;;;;28.80;38.30;;;;;;5117776;28;19912;-78
2021/09/15 07:33:49;;;;;;;;;;;28.20;37.30;;;;;;5119718;28;20438;-79
2021/09/15 07:36:15;;;;;;;;;;;27.50;38.00;;;;;;5119830;28;19911;-79
2021/09/15 07:38:41;;;;;;;;;;;27.00;38.60;;;;;;5113670;28;19915;-76
2021/09/15 07:41:06;;;;;;;;;;;26.40;38.30;;;;;;5114190;28;19908;-77
2021/09/15 07:43:32;;;;;;;;;;;26.10;38.40;;;;;;5114488;28;19919;-78
2021/09/15 07:45:59;;;;;;;;;;;26.20;39.60;;;;;;5118213;28;19919;-78
2021/09/15 07:48:25;;;;;;;;;;;26.30;37.30;;;;;;5116724;28;19934;-78
2021/09/15 07:50:51;;;;;;;;;;;26.30;38.10;;;;;;5116504;28;19907;-79
2021/09/15 07:53:20;;;;;;;;;;;26.40;37.80;;;;;;5118819;28;19923;-77
2021/09/15 07:55:46;;;;;;;;;;;26.40;38.50;;;;;;5119426;28;19991;-80
2021/09/15 07:58:11;;;;;;;;;;;26.40;38.20;;;;;;5123073;28;19954;-78
2021/09/15 08:00:37;;;;;;;;;;;26.50;37.50;;;;;;5124598;28;19915;-80
2021/09/15 08:03:05;;;;;;;;;;;26.60;37.80;;;;;;5120464;28;20001;-79
2021/09/15 08:05:30;;;;;;;;;;;27.00;37.60;;;;;;5122197;28;20279;-76
2021/09/15 08:07:57;;;;;;;;;;;27.50;37.70;;;;;;5117317;28;20014;-76
2021/09/15 08:10:23;;;;;;;;;;;28.30;36.80;;;;;;5112660;28;20000;-78
2021/09/15 08:12:48;;;;;;;;;;;29.10;36.80;;;;;;5114811;28;19916;-78
2021/09/15 08:15:14;;;;;;;;;;;30.00;37.00;;;;;;5109176;28;19908;-78
2021/09/15 08:17:40;;;;;;;;;;;30.90;36.30;;;;;;5122239;28;20376;-82
2021/09/15 08:20:06;;;;;;;;;;;31.90;35.90;;;;;;5121078;28;19915;-81
2021/09/15 08:22:33;;;;;;;;;;;32.70;35.30;;;;;;5122490;28;19915;-81
2021/09/15 08:24:58;;;;;;;;;;;33.30;36.40;;;;;;5120410;28;19919;-78
2021/09/15 08:27:24;;;;;;;;;;;34.10;36.90;;;;;;5114705;28;19920;-79
2021/09/15 08:29:49;;;;;;;;;;;34.50;34.70;;;;;;5111024;28;19927;-78
2021/09/15 08:32:15;;;;;;;;;;;34.80;35.00;;;;;;5107030;28;19946;-82
2021/09/15 08:34:41;;;;;;;;;;;35.10;36.30;;;;;;5109338;28;20411;-82
2021/09/15 08:37:07;;;;;;;;;;;35.30;36.30;;;;;;5111154;28;19908;-78
2021/09/15 08:39:33;;;;;;;;;;;35.50;34.90;;;;;;5109928;28;19992;-79
2021/09/15 08:41:59;;;;;;;;;;;35.80;34.90;;;;;;5109529;28;19916;-75
2021/09/15 08:44:24;;;;;;;;;;;36.10;34.90;;;;;;5108424;28;19915;-79
2021/09/15 08:46:52;;;;;;;;;;;36.30;33.70;;;;;;5110306;28;19968;-76
2021/09/15 08:49:19;;;;;;;;;;;36.60;34.90;;;;;;5110394;28;19916;-78
2021/09/15 08:51:45;;;;;;;;;;;36.60;33.60;;;;;;5110645;28;19915;-79
2021/09/15 08:54:14;;;;;;;;;;;36.80;34.20;;;;;;5109257;28;19916;-77
2021/09/15 08:56:40;;;;;;;;;;;37.10;34.00;;;;;;5114524;28;19912;-83
2021/09/15 08:59:05;;;;;;;;;;;37.00;32.30;;;;;;5114447;28;19920;-81
2021/09/15 09:01:31;;;;;;;;;;;37.10;32.70;;;;;;5113468;28;19982;-79
2021/09/15 09:03:57;;;;;;;;;;;37.50;32.00;;;;;;5112434;28;19931;-79
2021/09/15 09:06:24;;;;;;;;;;;37.80;33.00;;;;;;5114841;28;19915;-79
2021/09/15 09:08:54;;;;;;;;;;;37.80;32.30;;;;;;5115979;28;19931;-78
2021/09/15 09:11:22;;;;;;;;;;;37.80;33.00;;;;;;5109090;28;19912;-78
2021/09/15 09:13:49;;;;;;;;;;;38.00;32.00;;;;;;5109462;28;19968;-77
2021/09/15 09:16:15;;;;;;;;;;;38.30;33.00;;;;;;5109393;28;19952;-79
2021/09/15 09:18:56;;;;;;;;;;;38.60;31.80;;;;;;5108926;28;19933;-79
2021/09/15 09:21:26;;;;;;;;;;;38.70;32.50;;;;;;5115069;28;19912;-79
2021/09/15 09:23:54;;;;;;;;;;;38.70;31.10;;;;;;5113608;28;19908;-77
2021/09/15 09:26:25;;;;;;;;;;;38.80;31.40;;;;;;5112946;28;19912;-80
2021/09/15 09:28:51;;;;;;;;;;;39.10;33.30;;;;;;5119820;28;19916;-78
2021/09/15 09:31:17;;;;;;;;;;;39.30;32.40;;;;;;5117098;28;19919;-78
2021/09/15 09:33:45;;;;;;;;;;;39.60;32.30;;;;;;5116002;28;19907;-77
2021/09/15 09:36:12;;;;;;;;;;;39.60;31.30;;;;;;5112822;28;19915;-79
2021/09/15 09:38:39;;;;;;;;;;;39.60;31.60;;;;;;5115948;28;19914;-81
2021/09/15 09:41:09;;;;;;;;;;;39.70;30.80;;;;;;5118544;28;19917;-79
2021/09/15 09:43:36;;;;;;;;;;;40.00;31.50;;;;;;5113468;28;20360;-77
2021/09/15 09:46:02;;;;;;;;;;;40.00;31.20;;;;;;5119906;28;20344;-79
2021/09/15 09:48:28;;;;;;;;;;;40.10;31.10;;;;;;5116541;28;19930;-79
2021/09/15 09:50:54;;;;;;;;;;;40.30;29.90;;;;;;5110243;28;19916;-78
2021/09/15 09:53:20;;;;;;;;;;;40.90;31.30;;;;;;5110828;28;20010;-79
2021/09/15 09:56:06;;;;;;;;;;;41.30;29.50;;;;;;5113831;28;19916;-81
2021/09/15 09:58:33;;;;;;;;;;;41.60;29.20;;;;;;5112894;28;19947;-80
2021/09/15 10:00:59;;;;;;;;;;;41.70;30.50;;;;;;5114972;28;20024;-82
2021/09/15 10:03:24;;;;;;;;;;;41.30;30.90;;;;;;5119165;28;20280;-83
2021/09/15 10:05:50;;;;;;;;;;;41.10;29.50;;;;;;5118925;28;19923;-80
2021/09/15 10:08:20;;;;;;;;;;;41.40;30.00;;;;;;5117608;28;19937;-80
2021/09/15 10:10:50;;;;;;;;;;;41.80;30.30;;;;;;5118059;28;19915;-81
2021/09/15 10:13:16;;;;;;;;;;;42.10;30.00;;;;;;5120345;28;19908;-83
2021/09/15 10:15:44;;;;;;;;;;;42.40;29.60;;;;;;5118055;28;19919;-83
2021/09/15 10:18:11;;;;;;;;;;;42.80;30.20;;;;;;5100007;28;19965;-79
2021/09/15 10:20:42;;;;;;;;;;;42.40;29.10;;;;;;5119508;28;19951;-79
2021/09/15 10:23:28;;;;;;;;;;;42.00;29.50;;;;;;5119268;28;20305;-80
2021/09/15 10:25:54;;;;;;;;;;;42.00;30.00;;;;;;5093112;28;19916;-84
2021/09/15 10:28:20;;;;;;;;;;;42.20;29.60;;;;;;5117379;28;19940;-79
2021/09/15 10:30:46;;;;;;;;;;;42.40;30.30;;;;;;5110560;28;20334;-82
2021/09/15 10:33:30;;;;;;;;;;;42.50;29.50;;;;;;5112857;28;20402;-79
2021/09/15 10:35:56;;;;;;;;;;;42.80;29.90;;;;;;5116320;28;19934;-78
2021/09/15 10:38:42;;;;;;;;;;;43.00;29.50;;;;;;5115754;28;20427;-78
2021/09/15 10:41:26;;;;;;;;;;;43.00;29.80;;;;;;5092358;28;19969;-80
2021/09/15 10:44:03;;;;;;;;;;;43.00;29.30;;;;;;5119893;28;19911;-79
2021/09/15 10:46:28;;;;;;;;;;;42.80;29.80;;;;;;5117271;28;19954;-79
2021/09/15 10:49:13;;;;;;;;;;;42.60;29.20;;;;;;5119380;28;20350;-76
2021/09/15 10:51:38;;;;;;;;;;;42.40;29.90;;;;;;5113512;28;19947;-79
2021/09/15 10:54:24;;;;;;;;;;;42.20;29.10;;;;;;5113634;28;19912;-79
2021/09/15 10:57:09;;;;;;;;;;;42.20;29.40;;;;;;5114590;28;20215;-79
2021/09/15 10:59:48;;;;;;;;;;;42.20;29.20;;;;;;5115862;28;20276;-78
2021/09/15 11:02:30;;;;;;;;;;;42.30;29.20;;;;;;5116661;28;19911;-77
2021/09/15 11:04:56;;;;;;;;;;;42.20;28.50;;;;;;5118915;28;19912;-78
2021/09/15 11:07:40;;;;;;;;;;;42.10;28.70;;;;;;5118392;28;19964;-77
2021/09/15 11:10:06;;;;;;;;;;;42.00;29.30;;;;;;5118529;28;19926;-76
2021/09/15 11:12:52;;;;;;;;;;;41.90;29.00;;;;;;5116540;27;19911;-80
2021/09/15 11:15:25;;;;;;;;;;;42.00;29.10;;;;;;5116230;28;19919;-79
2021/09/15 11:17:52;;;;;;;;;;;42.50;30.30;;;;;;5118736;28;20381;-80
2021/09/15 11:20:19;;;;;;;;;;;42.70;29.60;;;;;;5116834;28;20522;-80
2021/09/15 11:22:45;;;;;;;;;;;42.70;29.40;;;;;;5117296;28;19912;-80
2021/09/15 11:25:14;;;;;;;;;;;42.60;28.30;;;;;;5119596;28;19951;-80
2021/09/15 11:27:40;;;;;;;;;;;42.30;28.00;;;;;;5115839;28;19934;-77
2021/09/15 11:30:06;;;;;;;;;;;41.70;28.10;;;;;;5111019;28;19916;-76
2021/09/15 11:32:32;;;;;;;;;;;41.30;28.80;;;;;;5112628;28;19911;-76
2021/09/15 11:34:57;;;;;;;;;;;41.30;29.00;;;;;;5112797;28;19912;-76
2021/09/15 11:37:24;;;;;;;;;;;41.10;28.80;;;;;;5111864;28;20045;-77
2021/09/15 11:40:19;;;;;;;;;;;41.10;28.60;;;;;;5113837;28;19916;-79
2021/09/15 11:42:48;;;;;;;;;;;41.20;28.30;;;;;;5090067;28;19919;-77
2021/09/15 11:45:14;;;;;;;;;;;41.40;28.50;;;;;;5112853;28;19912;-77
2021/09/15 11:47:44;;;;;;;;;;;41.60;28.20;;;;;;5112368;28;19923;-77
2021/09/15 11:50:17;;;;;;;;;;;42.10;28.30;;;;;;5108764;28;19919;-78
2021/09/15 11:52:50;;;;;;;;;;;42.40;26.80;;;;;;5112605;28;19998;-82
2021/09/15 11:55:17;;;;;;;;;;;42.40;28.00;;;;;;5114633;28;19915;-81
2021/09/15 11:57:47;;;;;;;;;;;42.00;26.70;;;;;;5115579;28;20420;-82
2021/09/15 12:00:13;;;;;;;;;;;41.80;27.30;;;;;;5114205;28;20299;-82
2021/09/15 12:02:40;;;;;;;;;;;41.60;27.70;;;;;;5114700;28;19908;-83
2021/09/15 12:05:07;;;;;;;;;;;41.50;27.10;;;;;;5121280;28;19916;-81
2021/09/15 12:07:33;;;;;;;;;;;41.20;26.90;;;;;;5115911;27;20597;-84
2021/09/15 12:10:00;;;;;;;;;;;41.20;27.10;;;;;;5112123;28;19997;-78
2021/09/15 12:12:27;;;;;;;;;;;40.90;28.10;;;;;;5114924;28;19907;-80
2021/09/15 12:14:57;;;;;;;;;;;41.20;27.90;;;;;;5114953;28;20404;-80
2021/09/15 12:17:23;;;;;;;;;;;41.60;27.30;;;;;;5112161;28;19907;-80
2021/09/15 12:19:49;;;;;;;;;;;41.80;27.70;;;;;;5115502;28;20007;-79
2021/09/15 12:22:19;;;;;;;;;;;42.00;28.00;;;;;;5113043;28;19908;-80
2021/09/15 12:24:58;;;;;;;;;;;42.40;28.10;;;;;;5117091;28;20349;-80
2021/09/15 12:27:24;;;;;;;;;;;42.50;26.90;;;;;;5117506;28;20398;-78
2021/09/15 12:29:59;;;;;;;;;;;42.50;27.00;;;;;;5112354;28;19920;-78
2021/09/15 12:32:32;;;;;;;;;;;42.20;27.10;;;;;;5114010;28;19914;-81
2021/09/15 12:34:57;;;;;;;;;;;41.40;27.70;;;;;;5118340;28;19916;-80
2021/09/15 12:37:23;;;;;;;;;;;40.90;27.60;;;;;;5116860;28;19987;-81
2021/09/15 12:40:00;;;;;;;;;;;40.70;26.50;;;;;;5112543;28;20382;-81
2021/09/15 12:42:30;;;;;;;;;;;40.40;27.50;;;;;;5112921;28;20284;-78
2021/09/15 12:45:05;;;;;;;;;;;40.40;27.60;;;;;;5119452;28;19916;-82
2021/09/15 12:47:42;;;;;;;;;;;40.50;27.40;;;;;;5118193;28;19920;-80
2021/09/15 12:50:27;;;;;;;;;;;40.60;27.30;;;;;;5120022;28;19916;-80
2021/09/15 12:53:19;;;;;;;;;;;40.70;26.70;;;;;;5117871;28;19908;-81
2021/09/15 12:55:48;;;;;;;;;;;40.80;26.90;;;;;;5113095;28;19916;-80
2021/09/15 12:58:25;;;;;;;;;;;40.60;26.70;;;;;;5113025;28;20015;-81
2021/09/15 13:00:51;;;;;;;;;;;40.50;26.30;;;;;;5111693;28;19923;-78
2021/09/15 13:03:16;;;;;;;;;;;40.70;26.60;;;;;;5113508;28;20328;-79
2021/09/15 13:05:43;;;;;;;;;;;40.60;26.40;;;;;;5112729;28;20387;-78
2021/09/15 13:08:25;;;;;;;;;;;40.40;26.90;;;;;;5114650;28;19916;-81
2021/09/15 13:10:51;;;;;;;;;;;40.20;26.50;;;;;;5113486;28;20360;-82
2021/09/15 13:13:21;;;;;;;;;;;40.50;26.20;;;;;;5111680;28;20021;-79
2021/09/15 13:15:47;;;;;;;;;;;40.60;27.30;;;;;;5108226;28;19912;-78
2021/09/15 13:18:12;;;;;;;;;;;40.60;27.10;;;;;;5108531;28;19911;-77
2021/09/15 13:20:38;;;;;;;;;;;40.80;26.30;;;;;;5111703;28;19912;-81
2021/09/15 13:23:04;;;;;;;;;;;40.90;26.10;;;;;;5113982;28;19919;-81
2021/09/15 13:25:30;;;;;;;;;;;40.80;27.10;;;;;;5039773;22;19933;-81
2021/09/15 13:35:41;;;;;;;;;;;39.70;26.30;;;;;;5308374;22;19935;-83
2021/09/15 13:38:07;;;;;;;;;;;39.50;26.40;;;;;;5050776;28;19909;-82
2021/09/15 13:40:34;;;;;;;;;;;39.50;26.70;;;;;;5037413;28;20012;-81
2021/09/15 13:42:59;;;;;;;;;;;39.40;26.70;;;;;;5033661;28;19996;-77
2021/09/15 13:45:25;;;;;;;;;;;39.40;26.50;;;;;;5127444;22;19929;-83
2021/09/15 13:47:50;;;;;;;;;;;39.30;25.80;;;;;;5067201;28;19924;-82
2021/09/15 13:50:23;;;;;;;;;;;39.20;25.80;;;;;;5071198;28;19974;-84
2021/09/15 13:52:49;;;;;;;;;;;39.30;25.80;;;;;;5069371;28;19963;-80
2021/09/15 13:55:15;;;;;;;;;;;39.40;26.90;;;;;;5073302;28;19946;-82
2021/09/15 13:57:42;;;;;;;;;;;39.30;25.90;;;;;;5069661;28;19908;-81
2021/09/15 14:00:08;;;;;;;;;;;39.50;25.60;;;;;;5069112;28;20298;-83
2021/09/15 14:02:34;;;;;;;;;;;39.40;26.10;;;;;;5067526;28;19940;-82
2021/09/15 14:05:03;;;;;;;;;;;39.10;24.60;;;;;;5067518;28;20199;-81
2021/09/15 14:07:28;;;;;;;;;;;39.10;25.50;;;;;;5071418;28;20539;-81
2021/09/15 14:09:54;;;;;;;;;;;39.10;25.60;;;;;;5072550;28;20208;-78
2021/09/15 14:12:19;;;;;;;;;;;39.00;25.80;;;;;;5070556;28;19908;-78
2021/09/15 14:14:45;;;;;;;;;;;39.00;26.00;;;;;;5073025;28;19920;-79
2021/09/15 14:17:10;;;;;;;;;;;38.70;26.20;;;;;;5075833;28;19960;-81
2021/09/15 14:19:36;;;;;;;;;;;38.50;26.20;;;;;;5074129;28;19959;-81
2021/09/15 14:22:02;;;;;;;;;;;38.50;26.20;;;;;;5073246;28;20438;-76
2021/09/15 14:24:27;;;;;;;;;;;38.30;26.30;;;;;;5072470;28;19916;-77
2021/09/15 14:26:53;;;;;;;;;;;38.00;26.00;;;;;;5073434;28;19912;-79
2021/09/15 14:29:19;;;;;;;;;;;37.90;25.70;;;;;;5073710;28;19989;-79
2021/09/15 14:31:44;;;;;;;;;;;37.90;25.90;;;;;;5073466;28;19912;-77